Main page
METAR-TAF:

METAR-TAF

Airports :

Lechfeld Air Base

Lechfeld, Germany

latitude: 48-11N, longitude: 010-52E, elevation: 555 m

Current weather observation

The report was made 24 minutes ago, at 07:20 UTC
Wind 4 kt from the Northeast
Temperature 11°C
Humidity 58%
Pressure 1027 hPa
Visibility 10 km or more

METAR: ETSL 190720Z AUTO 05004KT 9999 // ////// 11/03 Q1027 ///

Time: 09:44 (07:44 UTC)

Forecast

The report was made 16 hours and 44 minutes ago, at 15:00 UTC
Forecast valid from 18 at 15 UTC to 18 at 23 UTC
Wind 12 kt from the Northeast with gusts up to 25 kt
Visibility: 1500 m
Scattered clouds at a height of 18000 ft

TAF: ETSL 181500Z 1815/1823 05012G25KT 9999 NSW SCT180 CANCEL 1500 BY ETGL

Weather observations and forecasts of more than 4000 airports (METAR and TAF reports).

The available stations are represented by yellow and red dots on the map.

Hover mouse over dot to see the name of the station.

Then click to see weather observations and forecasts.

To change the map : click on the green buttons with a black cross to zoom in, on the green button with a dash to zoom out, or on the green arrows for adjacent maps.


METAR-TAF: